9NC4 weather

Jiles Field
Gates, North Carolina, United States

Public forecast

Using degrees Fahrenheit for public forecast. Weather courtesy of forecast.io.

METAR (pilot weather report)

Closest report is Suffolk Executive Airport, 10.8 nm (20.0 km) NNE. Retrieved 2019/04/21 21:35 UTC (6 minutes ago):

KSFQ 212135Z AUTO 00000KT 10SM OVC070 18/07 A3001 RMK AO2 T01800067

TAF (pilot weather forecast)

Closest forecast is Elizabeth City Regional Airport & Coast Guard Air Station, 28.0 nm (51.8 km) ESE. Retrieved 2019/04/21 18:42 UTC (3 hours ago):

TAF KECG 211739Z 2118/2218 19007KT P6SM SCT050 FM212000 16006KT P6SM BKN060 FM220100 06004KT P6SM VCSH OVC060 FM220600 30005KT P6SM OVC050 FM221500 32007KT P6SM SCT060